sensor_id;sensor_type;location;lat;lon;timestamp;P1;durP1;ratioP1;P2;durP2;ratioP2
8857;SDS011;4465;50.904;4.696;2022-09-13T00:01:22;7.80;;;2.92;;
8857;SDS011;4465;50.904;4.696;2022-09-13T00:03:48;7.78;;;3.05;;
8857;SDS011;4465;50.904;4.696;2022-09-13T00:06:17;7.07;;;3.00;;
8857;SDS011;4465;50.904;4.696;2022-09-13T00:08:44;5.43;;;2.92;;
8857;SDS011;4465;50.904;4.696;2022-09-13T00:11:15;9.90;;;3.30;;
8857;SDS011;4465;50.904;4.696;2022-09-13T00:13:44;5.80;;;2.80;;
8857;SDS011;4465;50.904;4.696;2022-09-13T00:16:11;10.20;;;3.20;;
8857;SDS011;4465;50.904;4.696;2022-09-13T00:18:39;4.35;;;2.80;;
8857;SDS011;4465;50.904;4.696;2022-09-13T00:21:07;6.60;;;3.20;;
8857;SDS011;4465;50.904;4.696;2022-09-13T00:23:35;6.80;;;3.00;;
8857;SDS011;4465;50.904;4.696;2022-09-13T00:26:06;6.07;;;3.47;;
8857;SDS011;4465;50.904;4.696;2022-09-13T00:28:34;4.32;;;2.88;;
8857;SDS011;4465;50.904;4.696;2022-09-13T00:31:01;4.88;;;2.75;;
8857;SDS011;4465;50.904;4.696;2022-09-13T00:35:54;6.60;;;2.60;;
8857;SDS011;4465;50.904;4.696;2022-09-13T00:38:21;5.75;;;2.95;;
8857;SDS011;4465;50.904;4.696;2022-09-13T00:40:50;5.57;;;3.10;;
8857;SDS011;4465;50.904;4.696;2022-09-13T00:43:17;5.95;;;3.10;;
8857;SDS011;4465;50.904;4.696;2022-09-13T00:45:45;4.93;;;3.08;;
8857;SDS011;4465;50.904;4.696;2022-09-13T00:48:16;9.77;;;2.85;;
8857;SDS011;4465;50.904;4.696;2022-09-13T00:50:50;5.60;;;3.10;;
8857;SDS011;4465;50.904;4.696;2022-09-13T00:53:24;11.07;;;3.25;;
8857;SDS011;4465;50.904;4.696;2022-09-13T00:55:59;7.47;;;3.00;;
8857;SDS011;4465;50.904;4.696;2022-09-13T00:58:35;7.05;;;2.90;;
8857;SDS011;4465;50.904;4.696;2022-09-13T01:01:03;9.10;;;3.15;;
8857;SDS011;4465;50.904;4.696;2022-09-13T01:03:32;7.93;;;2.72;;
8857;SDS011;4465;50.904;4.696;2022-09-13T01:06:01;4.68;;;2.80;;
8857;SDS011;4465;50.904;4.696;2022-09-13T01:08:35;4.65;;;2.75;;
8857;SDS011;4465;50.904;4.696;2022-09-13T01:11:04;5.10;;;2.78;;
8857;SDS011;4465;50.904;4.696;2022-09-13T01:13:36;7.85;;;2.95;;
8857;SDS011;4465;50.904;4.696;2022-09-13T01:16:03;5.93;;;3.33;;
8857;SDS011;4465;50.904;4.696;2022-09-13T01:18:30;6.30;;;3.00;;
8857;SDS011;4465;50.904;4.696;2022-09-13T01:21:21;9.30;;;3.05;;
8857;SDS011;4465;50.904;4.696;2022-09-13T01:27:01;5.15;;;2.95;;
8857;SDS011;4465;50.904;4.696;2022-09-13T01:35:43;6.22;;;3.10;;
8857;SDS011;4465;50.904;4.696;2022-09-13T01:41:22;4.50;;;2.58;;
8857;SDS011;4465;50.904;4.696;2022-09-13T01:49:56;6.47;;;2.97;;
8857;SDS011;4465;50.904;4.696;2022-09-13T01:52:32;4.20;;;2.78;;
8857;SDS011;4465;50.904;4.696;2022-09-13T01:55:19;6.97;;;2.95;;
8857;SDS011;4465;50.904;4.696;2022-09-13T02:03:59;5.63;;;2.80;;
8857;SDS011;4465;50.904;4.696;2022-09-13T02:06:40;5.10;;;3.03;;
8857;SDS011;4465;50.904;4.696;2022-09-13T02:09:15;8.70;;;2.80;;
8857;SDS011;4465;50.904;4.696;2022-09-13T02:11:52;7.80;;;2.60;;
8857;SDS011;4465;50.904;4.696;2022-09-13T02:14:26;4.85;;;2.85;;
8857;SDS011;4465;50.904;4.696;2022-09-13T02:16:58;6.28;;;3.03;;
8857;SDS011;4465;50.904;4.696;2022-09-13T02:19:34;14.75;;;3.00;;
8857;SDS011;4465;50.904;4.696;2022-09-13T02:22:07;8.10;;;3.10;;
8857;SDS011;4465;50.904;4.696;2022-09-13T02:24:36;5.88;;;2.83;;
8857;SDS011;4465;50.904;4.696;2022-09-13T02:27:09;5.75;;;2.70;;
8857;SDS011;4465;50.904;4.696;2022-09-13T02:29:39;8.00;;;2.80;;
8857;SDS011;4465;50.904;4.696;2022-09-13T02:32:12;7.72;;;2.80;;
8857;SDS011;4465;50.904;4.696;2022-09-13T02:34:55;5.65;;;2.60;;
8857;SDS011;4465;50.904;4.696;2022-09-13T02:37:27;8.73;;;3.03;;
8857;SDS011;4465;50.904;4.696;2022-09-13T02:40:03;6.18;;;3.00;;
8857;SDS011;4465;50.904;4.696;2022-09-13T02:42:43;5.22;;;2.60;;
8857;SDS011;4465;50.904;4.696;2022-09-13T02:45:15;9.20;;;3.00;;
8857;SDS011;4465;50.904;4.696;2022-09-13T02:55:51;9.88;;;3.10;;
8857;SDS011;4465;50.904;4.696;2022-09-13T02:58:46;5.80;;;2.60;;
8857;SDS011;4465;50.904;4.696;2022-09-13T03:01:22;8.27;;;2.85;;
8857;SDS011;4465;50.904;4.696;2022-09-13T03:03:50;9.32;;;2.80;;
8857;SDS011;4465;50.904;4.696;2022-09-13T03:06:26;5.55;;;2.53;;
8857;SDS011;4465;50.904;4.696;2022-09-13T03:08:56;9.02;;;2.80;;
8857;SDS011;4465;50.904;4.696;2022-09-13T03:17:09;6.57;;;2.70;;
8857;SDS011;4465;50.904;4.696;2022-09-13T03:20:00;5.70;;;2.50;;
8857;SDS011;4465;50.904;4.696;2022-09-13T03:22:51;5.13;;;2.75;;
8857;SDS011;4465;50.904;4.696;2022-09-13T03:28:26;6.57;;;2.78;;
8857;SDS011;4465;50.904;4.696;2022-09-13T03:31:17;4.60;;;3.00;;
8857;SDS011;4465;50.904;4.696;2022-09-13T03:33:56;4.95;;;3.17;;
8857;SDS011;4465;50.904;4.696;2022-09-13T03:39:24;5.05;;;3.10;;
8857;SDS011;4465;50.904;4.696;2022-09-13T03:42:43;5.22;;;2.90;;
8857;SDS011;4465;50.904;4.696;2022-09-13T03:45:14;5.38;;;2.85;;
8857;SDS011;4465;50.904;4.696;2022-09-13T03:47:44;6.35;;;2.90;;
8857;SDS011;4465;50.904;4.696;2022-09-13T03:50:16;7.35;;;3.30;;
8857;SDS011;4465;50.904;4.696;2022-09-13T03:52:45;4.50;;;2.55;;
8857;SDS011;4465;50.904;4.696;2022-09-13T03:55:18;5.22;;;2.85;;
8857;SDS011;4465;50.904;4.696;2022-09-13T03:57:47;9.50;;;3.00;;
8857;SDS011;4465;50.904;4.696;2022-09-13T04:00:13;5.25;;;2.97;;
8857;SDS011;4465;50.904;4.696;2022-09-13T04:02:40;4.75;;;2.83;;
8857;SDS011;4465;50.904;4.696;2022-09-13T04:05:09;6.30;;;2.85;;
8857;SDS011;4465;50.904;4.696;2022-09-13T04:07:38;8.50;;;3.22;;
8857;SDS011;4465;50.904;4.696;2022-09-13T04:10:04;6.32;;;2.88;;
8857;SDS011;4465;50.904;4.696;2022-09-13T04:12:30;4.60;;;2.92;;
8857;SDS011;4465;50.904;4.696;2022-09-13T04:14:57;5.03;;;2.90;;
8857;SDS011;4465;50.904;4.696;2022-09-13T04:17:25;6.70;;;2.88;;
8857;SDS011;4465;50.904;4.696;2022-09-13T04:19:51;5.80;;;2.80;;
8857;SDS011;4465;50.904;4.696;2022-09-13T04:22:18;8.77;;;3.35;;
8857;SDS011;4465;50.904;4.696;2022-09-13T04:24:44;4.88;;;2.95;;
8857;SDS011;4465;50.904;4.696;2022-09-13T04:27:11;6.00;;;3.15;;
8857;SDS011;4465;50.904;4.696;2022-09-13T04:29:37;9.25;;;3.63;;
8857;SDS011;4465;50.904;4.696;2022-09-13T04:32:03;6.47;;;3.22;;
8857;SDS011;4465;50.904;4.696;2022-09-13T04:34:29;6.32;;;3.03;;
8857;SDS011;4465;50.904;4.696;2022-09-13T04:36:58;6.38;;;3.35;;
8857;SDS011;4465;50.904;4.696;2022-09-13T04:39:25;6.45;;;3.50;;
8857;SDS011;4465;50.904;4.696;2022-09-13T04:41:51;11.35;;;3.30;;
8857;SDS011;4465;50.904;4.696;2022-09-13T04:44:19;6.40;;;3.30;;
8857;SDS011;4465;50.904;4.696;2022-09-13T04:46:46;12.32;;;3.30;;
8857;SDS011;4465;50.904;4.696;2022-09-13T04:49:13;7.60;;;3.70;;
8857;SDS011;4465;50.904;4.696;2022-09-13T04:54:07;6.20;;;3.13;;
8857;SDS011;4465;50.904;4.696;2022-09-13T04:56:35;9.50;;;3.40;;
8857;SDS011;4465;50.904;4.696;2022-09-13T04:59:01;11.93;;;3.50;;
8857;SDS011;4465;50.904;4.696;2022-09-13T05:01:28;6.35;;;3.22;;
8857;SDS011;4465;50.904;4.696;2022-09-13T05:03:54;8.90;;;3.43;;
8857;SDS011;4465;50.904;4.696;2022-09-13T05:06:20;14.40;;;3.30;;
8857;SDS011;4465;50.904;4.696;2022-09-13T05:08:53;7.35;;;3.10;;
8857;SDS011;4465;50.904;4.696;2022-09-13T05:11:20;9.85;;;3.83;;
8857;SDS011;4465;50.904;4.696;2022-09-13T05:13:48;7.22;;;3.08;;
8857;SDS011;4465;50.904;4.696;2022-09-13T05:16:22;11.25;;;3.83;;
8857;SDS011;4465;50.904;4.696;2022-09-13T05:18:50;8.73;;;3.85;;
8857;SDS011;4465;50.904;4.696;2022-09-13T05:21:16;12.00;;;3.60;;
8857;SDS011;4465;50.904;4.696;2022-09-13T05:23:43;8.73;;;3.03;;
8857;SDS011;4465;50.904;4.696;2022-09-13T05:26:11;6.53;;;3.30;;
8857;SDS011;4465;50.904;4.696;2022-09-13T05:28:37;8.30;;;3.53;;
8857;SDS011;4465;50.904;4.696;2022-09-13T05:31:05;8.27;;;3.47;;
8857;SDS011;4465;50.904;4.696;2022-09-13T05:33:36;6.22;;;3.35;;
8857;SDS011;4465;50.904;4.696;2022-09-13T05:36:03;6.25;;;3.40;;
8857;SDS011;4465;50.904;4.696;2022-09-13T05:38:31;8.35;;;3.17;;
8857;SDS011;4465;50.904;4.696;2022-09-13T05:40:59;10.25;;;3.50;;
8857;SDS011;4465;50.904;4.696;2022-09-13T05:43:30;6.78;;;3.50;;
8857;SDS011;4465;50.904;4.696;2022-09-13T05:46:05;8.93;;;3.28;;
8857;SDS011;4465;50.904;4.696;2022-09-13T05:48:49;8.25;;;3.20;;
8857;SDS011;4465;50.904;4.696;2022-09-13T05:51:16;7.45;;;3.65;;
8857;SDS011;4465;50.904;4.696;2022-09-13T05:53:44;7.78;;;3.35;;
8857;SDS011;4465;50.904;4.696;2022-09-13T05:56:12;7.53;;;3.40;;
8857;SDS011;4465;50.904;4.696;2022-09-13T05:58:41;8.27;;;3.90;;
8857;SDS011;4465;50.904;4.696;2022-09-13T06:01:09;9.40;;;3.58;;
8857;SDS011;4465;50.904;4.696;2022-09-13T06:03:37;7.35;;;3.40;;
8857;SDS011;4465;50.904;4.696;2022-09-13T06:06:06;12.25;;;3.75;;
8857;SDS011;4465;50.904;4.696;2022-09-13T06:08:34;12.23;;;3.97;;
8857;SDS011;4465;50.904;4.696;2022-09-13T06:11:07;9.55;;;4.00;;
8857;SDS011;4465;50.904;4.696;2022-09-13T06:13:34;10.20;;;3.88;;
8857;SDS011;4465;50.904;4.696;2022-09-13T06:16:05;6.38;;;3.20;;
8857;SDS011;4465;50.904;4.696;2022-09-13T06:18:32;8.35;;;3.60;;
8857;SDS011;4465;50.904;4.696;2022-09-13T06:21:03;7.10;;;3.78;;
8857;SDS011;4465;50.904;4.696;2022-09-13T06:23:31;10.02;;;3.38;;
8857;SDS011;4465;50.904;4.696;2022-09-13T06:26:04;6.80;;;3.60;;
8857;SDS011;4465;50.904;4.696;2022-09-13T06:28:32;10.80;;;4.00;;
8857;SDS011;4465;50.904;4.696;2022-09-13T06:31:02;7.72;;;3.40;;
8857;SDS011;4465;50.904;4.696;2022-09-13T06:33:33;7.05;;;3.38;;
8857;SDS011;4465;50.904;4.696;2022-09-13T06:36:02;11.60;;;3.72;;
8857;SDS011;4465;50.904;4.696;2022-09-13T06:38:33;7.47;;;3.45;;
8857;SDS011;4465;50.904;4.696;2022-09-13T06:41:03;9.52;;;4.00;;
8857;SDS011;4465;50.904;4.696;2022-09-13T06:43:32;9.10;;;3.95;;
8857;SDS011;4465;50.904;4.696;2022-09-13T06:46:04;11.40;;;3.80;;
8857;SDS011;4465;50.904;4.696;2022-09-13T06:48:38;10.20;;;3.60;;
8857;SDS011;4465;50.904;4.696;2022-09-13T06:51:07;7.35;;;3.67;;
8857;SDS011;4465;50.904;4.696;2022-09-13T06:53:39;9.80;;;3.88;;
8857;SDS011;4465;50.904;4.696;2022-09-13T06:56:13;10.45;;;3.95;;
8857;SDS011;4465;50.904;4.696;2022-09-13T06:58:40;14.70;;;4.05;;
8857;SDS011;4465;50.904;4.696;2022-09-13T07:03:38;9.88;;;3.58;;
8857;SDS011;4465;50.904;4.696;2022-09-13T07:06:09;6.43;;;3.67;;
8857;SDS011;4465;50.904;4.696;2022-09-13T07:08:41;7.97;;;3.90;;
8857;SDS011;4465;50.904;4.696;2022-09-13T07:11:14;11.05;;;3.65;;
8857;SDS011;4465;50.904;4.696;2022-09-13T07:14:02;16.00;;;3.85;;
8857;SDS011;4465;50.904;4.696;2022-09-13T07:16:30;6.78;;;3.30;;
8857;SDS011;4465;50.904;4.696;2022-09-13T07:18:59;9.55;;;3.97;;
8857;SDS011;4465;50.904;4.696;2022-09-13T07:21:27;10.50;;;3.50;;
8857;SDS011;4465;50.904;4.696;2022-09-13T07:23:57;6.20;;;3.47;;
8857;SDS011;4465;50.904;4.696;2022-09-13T07:26:26;7.95;;;3.67;;
8857;SDS011;4465;50.904;4.696;2022-09-13T07:28:53;6.93;;;3.30;;
8857;SDS011;4465;50.904;4.696;2022-09-13T07:31:22;10.85;;;4.25;;
8857;SDS011;4465;50.904;4.696;2022-09-13T07:34:10;9.90;;;3.75;;
8857;SDS011;4465;50.904;4.696;2022-09-13T07:36:41;10.32;;;3.60;;
8857;SDS011;4465;50.904;4.696;2022-09-13T07:39:07;10.05;;;3.80;;
8857;SDS011;4465;50.904;4.696;2022-09-13T07:41:35;9.10;;;3.80;;
8857;SDS011;4465;50.904;4.696;2022-09-13T07:44:02;9.68;;;3.08;;
8857;SDS011;4465;50.904;4.696;2022-09-13T07:46:32;6.47;;;3.38;;
8857;SDS011;4465;50.904;4.696;2022-09-13T07:49:08;9.43;;;3.45;;
8857;SDS011;4465;50.904;4.696;2022-09-13T07:51:36;5.35;;;3.15;;
8857;SDS011;4465;50.904;4.696;2022-09-13T07:54:09;7.65;;;3.72;;
8857;SDS011;4465;50.904;4.696;2022-09-13T07:56:40;8.77;;;3.53;;
8857;SDS011;4465;50.904;4.696;2022-09-13T07:59:11;10.23;;;3.75;;
8857;SDS011;4465;50.904;4.696;2022-09-13T08:01:41;7.82;;;3.45;;
8857;SDS011;4465;50.904;4.696;2022-09-13T08:04:11;8.57;;;3.22;;
8857;SDS011;4465;50.904;4.696;2022-09-13T08:06:49;7.95;;;3.42;;
8857;SDS011;4465;50.904;4.696;2022-09-13T08:09:15;13.02;;;3.13;;
8857;SDS011;4465;50.904;4.696;2022-09-13T08:11:43;10.05;;;3.63;;
8857;SDS011;4465;50.904;4.696;2022-09-13T08:14:18;14.43;;;3.45;;
8857;SDS011;4465;50.904;4.696;2022-09-13T08:16:47;6.40;;;2.95;;
8857;SDS011;4465;50.904;4.696;2022-09-13T08:19:16;6.95;;;3.08;;
8857;SDS011;4465;50.904;4.696;2022-09-13T08:21:45;5.57;;;3.35;;
8857;SDS011;4465;50.904;4.696;2022-09-13T08:24:12;7.35;;;3.20;;
8857;SDS011;4465;50.904;4.696;2022-09-13T08:26:44;6.43;;;2.78;;
8857;SDS011;4465;50.904;4.696;2022-09-13T08:29:11;9.10;;;3.30;;
8857;SDS011;4465;50.904;4.696;2022-09-13T08:31:37;10.52;;;3.50;;
8857;SDS011;4465;50.904;4.696;2022-09-13T08:34:03;6.82;;;3.55;;
8857;SDS011;4465;50.904;4.696;2022-09-13T08:36:31;6.93;;;3.60;;
8857;SDS011;4465;50.904;4.696;2022-09-13T08:38:58;8.38;;;3.53;;
8857;SDS011;4465;50.904;4.696;2022-09-13T08:44:29;10.25;;;4.03;;
8857;SDS011;4465;50.904;4.696;2022-09-13T08:49:47;7.22;;;3.25;;
8857;SDS011;4465;50.904;4.696;2022-09-13T08:52:23;14.43;;;3.97;;
8857;SDS011;4465;50.904;4.696;2022-09-13T08:54:55;8.48;;;3.45;;
8857;SDS011;4465;50.904;4.696;2022-09-13T08:57:29;7.30;;;3.33;;
8857;SDS011;4465;50.904;4.696;2022-09-13T09:05:45;12.98;;;3.75;;
8857;SDS011;4465;50.904;4.696;2022-09-13T09:08:23;12.10;;;4.13;;
8857;SDS011;4465;50.904;4.696;2022-09-13T09:11:01;8.52;;;4.00;;
8857;SDS011;4465;50.904;4.696;2022-09-13T09:13:40;7.35;;;4.05;;
8857;SDS011;4465;50.904;4.696;2022-09-13T09:16:45;8.45;;;4.10;;
8857;SDS011;4465;50.904;4.696;2022-09-13T09:19:17;10.13;;;4.90;;
8857;SDS011;4465;50.904;4.696;2022-09-13T09:21:48;14.30;;;4.50;;
8857;SDS011;4465;50.904;4.696;2022-09-13T09:26:50;16.17;;;4.47;;
8857;SDS011;4465;50.904;4.696;2022-09-13T09:29:24;13.45;;;4.50;;
8857;SDS011;4465;50.904;4.696;2022-09-13T09:34:41;10.50;;;5.00;;
8857;SDS011;4465;50.904;4.696;2022-09-13T09:37:20;10.30;;;5.53;;
8857;SDS011;4465;50.904;4.696;2022-09-13T09:39:49;12.32;;;4.55;;
8857;SDS011;4465;50.904;4.696;2022-09-13T09:42:18;12.82;;;4.53;;
8857;SDS011;4465;50.904;4.696;2022-09-13T09:44:50;14.18;;;4.95;;
8857;SDS011;4465;50.904;4.696;2022-09-13T09:47:23;8.90;;;4.30;;
8857;SDS011;4465;50.904;4.696;2022-09-13T09:55:43;12.70;;;4.60;;
8857;SDS011;4465;50.904;4.696;2022-09-13T09:58:16;14.57;;;4.32;;
8857;SDS011;4465;50.904;4.696;2022-09-13T10:00:53;14.02;;;4.72;;
8857;SDS011;4465;50.904;4.696;2022-09-13T10:03:24;13.48;;;4.32;;
8857;SDS011;4465;50.904;4.696;2022-09-13T10:06:07;23.95;;;4.35;;
8857;SDS011;4465;50.904;4.696;2022-09-13T10:08:39;8.13;;;4.20;;
8857;SDS011;4465;50.904;4.696;2022-09-13T10:11:08;7.90;;;4.07;;
8857;SDS011;4465;50.904;4.696;2022-09-13T10:13:35;7.32;;;3.58;;
8857;SDS011;4465;50.904;4.696;2022-09-13T10:18:47;8.25;;;3.75;;
8857;SDS011;4465;50.904;4.696;2022-09-13T10:23:43;9.95;;;3.60;;
8857;SDS011;4465;50.904;4.696;2022-09-13T10:26:20;11.90;;;3.67;;
8857;SDS011;4465;50.904;4.696;2022-09-13T10:31:17;11.30;;;3.40;;
8857;SDS011;4465;50.904;4.696;2022-09-13T10:36:15;8.05;;;3.33;;
8857;SDS011;4465;50.904;4.696;2022-09-13T10:39:01;10.07;;;3.70;;
8857;SDS011;4465;50.904;4.696;2022-09-13T10:41:31;10.48;;;3.50;;
8857;SDS011;4465;50.904;4.696;2022-09-13T10:44:03;9.60;;;3.70;;
8857;SDS011;4465;50.904;4.696;2022-09-13T10:46:44;10.65;;;4.15;;
8857;SDS011;4465;50.904;4.696;2022-09-13T10:51:59;10.65;;;3.67;;
8857;SDS011;4465;50.904;4.696;2022-09-13T10:54:28;13.50;;;4.53;;
8857;SDS011;4465;50.904;4.696;2022-09-13T10:56:54;8.85;;;3.75;;
8857;SDS011;4465;50.904;4.696;2022-09-13T10:59:27;7.13;;;3.92;;
8857;SDS011;4465;50.904;4.696;2022-09-13T11:21:00;9.82;;;3.50;;
8857;SDS011;4465;50.904;4.696;2022-09-13T11:23:53;6.93;;;3.30;;
8857;SDS011;4465;50.904;4.696;2022-09-13T11:29:36;5.22;;;2.95;;
8857;SDS011;4465;50.904;4.696;2022-09-13T11:46:09;6.63;;;3.35;;
8857;SDS011;4465;50.904;4.696;2022-09-13T11:51:27;9.65;;;2.95;;
8857;SDS011;4465;50.904;4.696;2022-09-13T11:56:53;8.05;;;2.50;;
8857;SDS011;4465;50.904;4.696;2022-09-13T12:02:02;9.38;;;2.40;;
8857;SDS011;4465;50.904;4.696;2022-09-13T12:04:53;6.72;;;2.53;;
8857;SDS011;4465;50.904;4.696;2022-09-13T12:07:33;4.90;;;2.38;;
8857;SDS011;4465;50.904;4.696;2022-09-13T12:10:06;8.18;;;2.65;;
8857;SDS011;4465;50.904;4.696;2022-09-13T12:12:41;7.97;;;2.67;;
8857;SDS011;4465;50.904;4.696;2022-09-13T12:15:20;4.70;;;2.85;;
8857;SDS011;4465;50.904;4.696;2022-09-13T12:18:01;4.88;;;2.50;;
8857;SDS011;4465;50.904;4.696;2022-09-13T12:20:43;4.82;;;2.35;;
8857;SDS011;4465;50.904;4.696;2022-09-13T12:23:15;8.85;;;2.88;;
8857;SDS011;4465;50.904;4.696;2022-09-13T12:25:51;5.07;;;2.50;;
8857;SDS011;4465;50.904;4.696;2022-09-13T12:31:18;4.20;;;2.72;;
8857;SDS011;4465;50.904;4.696;2022-09-13T12:33:45;4.28;;;2.50;;
8857;SDS011;4465;50.904;4.696;2022-09-13T12:36:55;4.57;;;2.42;;
8857;SDS011;4465;50.904;4.696;2022-09-13T12:53:31;6.32;;;2.78;;
8857;SDS011;4465;50.904;4.696;2022-09-13T13:01:35;4.13;;;2.20;;
8857;SDS011;4465;50.904;4.696;2022-09-13T13:04:14;7.53;;;3.08;;
8857;SDS011;4465;50.904;4.696;2022-09-13T13:07:03;4.87;;;2.93;;
8857;SDS011;4465;50.904;4.696;2022-09-13T13:09:39;5.95;;;2.92;;
8857;SDS011;4465;50.904;4.696;2022-09-13T13:17:53;8.80;;;3.20;;
8857;SDS011;4465;50.904;4.696;2022-09-13T13:23:23;8.57;;;3.47;;
8857;SDS011;4465;50.904;4.696;2022-09-13T13:26:03;5.90;;;3.25;;
8857;SDS011;4465;50.904;4.696;2022-09-13T13:28:49;5.47;;;3.50;;
8857;SDS011;4465;50.904;4.696;2022-09-13T13:36:27;11.30;;;3.47;;
8857;SDS011;4465;50.904;4.696;2022-09-13T13:40:08;7.05;;;3.60;;
8857;SDS011;4465;50.904;4.696;2022-09-13T13:41:54;9.10;;;3.70;;
8857;SDS011;4465;50.904;4.696;2022-09-13T13:47:39;7.57;;;3.75;;
8857;SDS011;4465;50.904;4.696;2022-09-13T13:52:52;10.73;;;4.65;;
8857;SDS011;4465;50.904;4.696;2022-09-13T13:55:40;9.13;;;3.75;;
8857;SDS011;4465;50.904;4.696;2022-09-13T13:58:23;7.63;;;3.70;;
8857;SDS011;4465;50.904;4.696;2022-09-13T14:00:54;10.95;;;4.65;;
8857;SDS011;4465;50.904;4.696;2022-09-13T14:03:27;6.55;;;3.92;;
8857;SDS011;4465;50.904;4.696;2022-09-13T14:06:01;9.30;;;3.75;;
8857;SDS011;4465;50.904;4.696;2022-09-13T14:11:26;8.20;;;4.68;;
8857;SDS011;4465;50.904;4.696;2022-09-13T14:19:52;9.23;;;4.95;;
8857;SDS011;4465;50.904;4.696;2022-09-13T14:22:24;6.43;;;4.00;;
8857;SDS011;4465;50.904;4.696;2022-09-13T14:24:56;8.85;;;4.40;;
8857;SDS011;4465;50.904;4.696;2022-09-13T14:27:24;8.50;;;3.90;;
8857;SDS011;4465;50.904;4.696;2022-09-13T14:32:23;6.72;;;3.75;;
8857;SDS011;4465;50.904;4.696;2022-09-13T14:37:28;9.77;;;4.13;;
8857;SDS011;4465;50.904;4.696;2022-09-13T14:42:25;8.93;;;3.42;;
8857;SDS011;4465;50.904;4.696;2022-09-13T14:44:54;9.65;;;4.07;;
8857;SDS011;4465;50.904;4.696;2022-09-13T14:47:26;8.23;;;4.25;;
8857;SDS011;4465;50.904;4.696;2022-09-13T14:50:06;6.32;;;3.90;;
8857;SDS011;4465;50.904;4.696;2022-09-13T14:52:56;7.10;;;3.60;;
8857;SDS011;4465;50.904;4.696;2022-09-13T14:55:28;9.77;;;4.25;;
8857;SDS011;4465;50.904;4.696;2022-09-13T14:57:58;11.40;;;3.97;;
8857;SDS011;4465;50.904;4.696;2022-09-13T15:00:30;9.15;;;3.85;;
8857;SDS011;4465;50.904;4.696;2022-09-13T15:03:01;10.55;;;4.20;;
8857;SDS011;4465;50.904;4.696;2022-09-13T15:05:32;7.03;;;4.03;;
8857;SDS011;4465;50.904;4.696;2022-09-13T15:08:00;7.47;;;4.38;;
8857;SDS011;4465;50.904;4.696;2022-09-13T15:11:05;10.68;;;4.30;;
8857;SDS011;4465;50.904;4.696;2022-09-13T15:13:35;9.48;;;4.55;;
8857;SDS011;4465;50.904;4.696;2022-09-13T15:16:25;9.70;;;4.63;;
8857;SDS011;4465;50.904;4.696;2022-09-13T15:21:42;7.00;;;4.78;;
8857;SDS011;4465;50.904;4.696;2022-09-13T15:24:15;11.18;;;5.38;;
8857;SDS011;4465;50.904;4.696;2022-09-13T15:29:16;14.18;;;7.88;;
8857;SDS011;4465;50.904;4.696;2022-09-13T15:31:44;19.25;;;10.20;;
8857;SDS011;4465;50.904;4.696;2022-09-13T15:34:11;20.40;;;12.27;;
8857;SDS011;4465;50.904;4.696;2022-09-13T15:37:08;14.73;;;8.70;;
8857;SDS011;4465;50.904;4.696;2022-09-13T15:42:26;12.98;;;6.70;;
8857;SDS011;4465;50.904;4.696;2022-09-13T15:44:52;17.63;;;7.70;;
8857;SDS011;4465;50.904;4.696;2022-09-13T15:47:25;11.70;;;7.57;;
8857;SDS011;4465;50.904;4.696;2022-09-13T15:49:54;15.23;;;7.35;;
8857;SDS011;4465;50.904;4.696;2022-09-13T15:52:20;13.18;;;6.97;;
8857;SDS011;4465;50.904;4.696;2022-09-13T15:57:20;10.85;;;6.80;;
8857;SDS011;4465;50.904;4.696;2022-09-13T15:59:47;13.30;;;6.95;;
8857;SDS011;4465;50.904;4.696;2022-09-13T16:02:23;11.00;;;6.73;;
8857;SDS011;4465;50.904;4.696;2022-09-13T16:04:52;11.40;;;7.10;;
8857;SDS011;4465;50.904;4.696;2022-09-13T16:07:19;14.00;;;7.45;;
8857;SDS011;4465;50.904;4.696;2022-09-13T16:09:46;14.23;;;7.45;;
8857;SDS011;4465;50.904;4.696;2022-09-13T16:12:13;11.43;;;6.80;;
8857;SDS011;4465;50.904;4.696;2022-09-13T16:14:39;10.57;;;6.15;;
8857;SDS011;4465;50.904;4.696;2022-09-13T16:17:39;12.20;;;6.35;;
8857;SDS011;4465;50.904;4.696;2022-09-13T16:19:58;15.25;;;6.40;;
8857;SDS011;4465;50.904;4.696;2022-09-13T16:22:24;11.32;;;6.70;;
8857;SDS011;4465;50.904;4.696;2022-09-13T16:24:50;11.10;;;6.90;;
8857;SDS011;4465;50.904;4.696;2022-09-13T16:27:17;13.38;;;6.78;;
8857;SDS011;4465;50.904;4.696;2022-09-13T16:29:44;15.57;;;7.13;;
8857;SDS011;4465;50.904;4.696;2022-09-13T16:32:10;17.85;;;6.95;;
8857;SDS011;4465;50.904;4.696;2022-09-13T16:34:37;15.95;;;7.65;;
8857;SDS011;4465;50.904;4.696;2022-09-13T16:37:03;13.02;;;7.30;;
8857;SDS011;4465;50.904;4.696;2022-09-13T16:39:29;12.18;;;6.53;;
8857;SDS011;4465;50.904;4.696;2022-09-13T16:41:57;16.40;;;7.13;;
8857;SDS011;4465;50.904;4.696;2022-09-13T16:44:23;14.23;;;6.32;;
8857;SDS011;4465;50.904;4.696;2022-09-13T16:46:49;11.05;;;5.80;;
8857;SDS011;4465;50.904;4.696;2022-09-13T16:49:18;10.45;;;6.18;;
8857;SDS011;4465;50.904;4.696;2022-09-13T16:51:47;10.32;;;6.13;;
8857;SDS011;4465;50.904;4.696;2022-09-13T16:54:13;16.50;;;6.18;;
8857;SDS011;4465;50.904;4.696;2022-09-13T16:56:39;8.48;;;5.55;;
8857;SDS011;4465;50.904;4.696;2022-09-13T16:59:05;9.32;;;5.47;;
8857;SDS011;4465;50.904;4.696;2022-09-13T17:01:31;9.27;;;5.20;;
8857;SDS011;4465;50.904;4.696;2022-09-13T17:04:00;14.52;;;5.00;;
8857;SDS011;4465;50.904;4.696;2022-09-13T17:06:28;14.77;;;5.57;;
8857;SDS011;4465;50.904;4.696;2022-09-13T17:08:58;13.95;;;5.88;;
8857;SDS011;4465;50.904;4.696;2022-09-13T17:11:27;11.80;;;5.60;;
8857;SDS011;4465;50.904;4.696;2022-09-13T17:14:03;18.17;;;6.20;;
8857;SDS011;4465;50.904;4.696;2022-09-13T17:16:36;16.88;;;6.45;;
8857;SDS011;4465;50.904;4.696;2022-09-13T17:19:05;19.65;;;6.10;;
8857;SDS011;4465;50.904;4.696;2022-09-13T17:21:33;11.48;;;5.93;;
8857;SDS011;4465;50.904;4.696;2022-09-13T17:24:00;14.25;;;6.78;;
8857;SDS011;4465;50.904;4.696;2022-09-13T17:26:27;13.32;;;5.95;;
8857;SDS011;4465;50.904;4.696;2022-09-13T17:28:53;18.70;;;6.70;;
8857;SDS011;4465;50.904;4.696;2022-09-13T17:31:20;17.67;;;6.80;;
8857;SDS011;4465;50.904;4.696;2022-09-13T17:33:45;15.10;;;6.88;;
8857;SDS011;4465;50.904;4.696;2022-09-13T17:36:12;15.65;;;6.97;;
8857;SDS011;4465;50.904;4.696;2022-09-13T17:38:39;16.15;;;7.10;;
8857;SDS011;4465;50.904;4.696;2022-09-13T17:43:34;16.45;;;7.22;;
8857;SDS011;4465;50.904;4.696;2022-09-13T17:46:05;17.05;;;6.82;;
8857;SDS011;4465;50.904;4.696;2022-09-13T17:48:32;12.52;;;7.13;;
8857;SDS011;4465;50.904;4.696;2022-09-13T17:51:21;15.90;;;7.73;;
8857;SDS011;4465;50.904;4.696;2022-09-13T17:53:51;15.60;;;6.53;;
8857;SDS011;4465;50.904;4.696;2022-09-13T17:56:20;21.17;;;7.13;;
8857;SDS011;4465;50.904;4.696;2022-09-13T17:58:50;12.27;;;6.07;;
8857;SDS011;4465;50.904;4.696;2022-09-13T18:01:18;14.20;;;6.90;;
8857;SDS011;4465;50.904;4.696;2022-09-13T18:03:47;17.58;;;7.22;;
8857;SDS011;4465;50.904;4.696;2022-09-13T18:06:13;20.65;;;7.95;;
8857;SDS011;4465;50.904;4.696;2022-09-13T18:08:39;21.13;;;8.50;;
8857;SDS011;4465;50.904;4.696;2022-09-13T18:11:10;21.48;;;8.13;;
8857;SDS011;4465;50.904;4.696;2022-09-13T18:13:38;25.58;;;7.75;;
8857;SDS011;4465;50.904;4.696;2022-09-13T18:16:09;16.83;;;7.57;;
8857;SDS011;4465;50.904;4.696;2022-09-13T18:18:37;11.98;;;7.38;;
8857;SDS011;4465;50.904;4.696;2022-09-13T18:21:05;14.73;;;7.68;;
8857;SDS011;4465;50.904;4.696;2022-09-13T18:23:32;17.10;;;7.63;;
8857;SDS011;4465;50.904;4.696;2022-09-13T18:26:03;16.27;;;7.60;;
8857;SDS011;4465;50.904;4.696;2022-09-13T18:28:33;16.35;;;6.97;;
8857;SDS011;4465;50.904;4.696;2022-09-13T18:31:01;13.97;;;7.80;;
8857;SDS011;4465;50.904;4.696;2022-09-13T18:33:32;21.95;;;7.95;;
8857;SDS011;4465;50.904;4.696;2022-09-13T18:38:26;13.02;;;6.90;;
8857;SDS011;4465;50.904;4.696;2022-09-13T18:40:59;12.55;;;6.72;;
8857;SDS011;4465;50.904;4.696;2022-09-13T18:43:44;11.68;;;7.43;;
8857;SDS011;4465;50.904;4.696;2022-09-13T18:46:15;16.00;;;7.13;;
8857;SDS011;4465;50.904;4.696;2022-09-13T18:48:44;20.52;;;7.53;;
8857;SDS011;4465;50.904;4.696;2022-09-13T18:51:16;17.08;;;7.82;;
8857;SDS011;4465;50.904;4.696;2022-09-13T18:53:44;19.40;;;7.32;;
8857;SDS011;4465;50.904;4.696;2022-09-13T18:56:11;13.73;;;6.68;;
8857;SDS011;4465;50.904;4.696;2022-09-13T18:58:40;15.15;;;8.40;;
8857;SDS011;4465;50.904;4.696;2022-09-13T19:01:10;18.65;;;9.35;;
8857;SDS011;4465;50.904;4.696;2022-09-13T19:03:39;14.73;;;8.77;;